Biscayne National Park, FL

8:43 PM EDT on September 02, 2014 (GMT -0400)
Dade County-Homestead Regional | Change Station
CLOSE
Current Station
Airport
Location: Homestead AFB,
Elevation: 7 ft
Nearby Weather Stations

Elev 7 ft 25.49 °N, 80.38 °W | Updated 45 minutes ago

Clear
Clear
82 °F
Feels Like 87 °F
N
2
Wind Variable Wind from Variable

Today
High -- | Low -- °F
--% Chance of Precip.
Yesterday
High -- | Low -- °F
Precip. -- in
7:02 AM 7:39 PM
First Quarter, 56% visible
Pressure 30.03 in
Visibility 10.0 miles
Clouds Clear
Heat Index 87 °F
Dew Point 73 °F
Humidity 76%
Rainfall 0.00 in
Snow Depth Not available.
UV 0 out of 12
Pollen 4.20 out of 12
PM2.5 Good
Flu Activity Not available.
METAR KHST 022358Z AUTO VRB02KT 10SM CLR 28/23 A3002 RMK AO2 SLP169 T02750230 10319 20275 53010

More Conditions Fewer Conditions

Pressure 30.03 in
Visibility 10.0 miles
Clouds Clear
Heat Index 87 °F
Dew Point 73 °F
Humidity 76%
Rainfall 0.00 in
Snow Depth Not available.
UV 0 out of 12
Pollen 4.20 out of 12
PM2.5 Good
Flu Activity Not available.
METAR KHST 022358Z AUTO VRB02KT 10SM CLR 28/23 A3002 RMK AO2 SLP169 T02750230 10319 20275 53010

More Conditions Fewer Conditions

Nowcast | as of 7:44 PM EDT on September 2, 2014

Isolated to scattered showers and possibly a thunderstorm, will move across Southeast Florida this evening. Their movement is to the west between 10 and 15 miles per hour. Expect up to a half of an inch of rain with these showers. It is possible to have locally heavier amounts of up to an inch.

×

10-Day Weather Forecast

Almanac

Astronomy

Sep. 02, 2014 Rise Set
Actual Time 7:02 AM EDT 7:39 PM EDT
Civil Twilight 6:39 AM EDT 8:02 PM EDT
Nautical Twilight 6:12 AM EDT 8:30 PM EDT
Astronomical Twilight 5:44 AM EDT 8:57 PM EDT
Moon 2:03 PM EDT (9/2) 12:21 AM EDT (9/2)
Length of Visible Light 13h 23m
Length of Day
12h 37m
Tomorrow will be 1m 26s shorter.
First Quarter, 56% of the Moon is Illuminated
Today
First Quarter
Sep 8
Full
Sep 15
Last Quarter
Sep 24
New
Oct 1
First Quarter

Today's Extremes

State Highs State Lows

Community

WunderPhotos

Upload Photos

1,749,808 photos uploaded!

Nearby

Air Quality

  Air Quality AQ Index Pollutant
Yesterday Good
PM2.5
Yesterday Good
OZONE
Current Good
PM2.5
Tuesday Moderate
PM2.5
Tuesday Good
OZONE
Wednesday Good
OZONE
Wednesday Good
PM2.5

Snow Depth

Station Depth Elevation
No new snow has been reported.

Earthquake Activity

City Distance Mag. Time & Date
No recent earthquake activity has been reported nearby.
Minimum magnitude displayed is 2.5.

Coastal Water Temperatures

Place Temperature
Virginia Key, FL 88.0 °F

Nearby Weather Stations